Pisgah, Missouri
Current Conditions -  °F | °C
As of 7:15 PM on Tuesday 21 Oct 2014 (Local Time) from KVER Reporting Station
Haze Haze  
Wind Chill: 62°   Ceiling: 500
Heat Index: 62°   Visibility: 0.5mi
Dew Point: 44°   Wind: 6mph
Humidity: 52%   Direction: 70°ENE
Pressure: 30.11"   Gusts: NA
Location:  38.7427°N, 92.7977°W
Report Text: KVER 220015Z AUTO 07005KT 1/2SM HZ VV005 17/07 A3011 RMK AO2 T01660067
Loading
Personal Weather Stations






























Interactive Weather Map
Tropical Storm Tracking
New forecast layout! Learn more

10-Day Weather Forecast

Advertisements
Track Severe Weather on mobile